TDPD/DOM METAR and TAF weather

Enter ICAO airport designator
Station Type Date Time Source
TDPD METAR 2022/06/27 17:00 UTC NOAA

TDPD 271700Z 11012KT 9999 SCT016 30/24 Q1017


Station Type Date Time Source
TDPD Decoded METAR 2022/06/27 17:00 UTC NOAA

Melville Hall Airport, Dominica (TDPD) 15-32N 061-18W 14M
Jun 27, 2022 - 01:00 PM EDT / 2022.06.27 1700 UTC
Wind: from the ESE (110 degrees) at 14 MPH (12 KT):0
Visibility: greater than 7 mile(s):0
Sky conditions: partly cloudy
Temperature: 86 F (30 C)
Heat index: 95.0 F (35.0 C):1
Dew Point: 75 F (24 C)
Relative Humidity: 70%
Pressure (altimeter): 30.03 in. Hg (1017 hPa)
ob: TDPD 271700Z 11012KT 9999 SCT016 30/24 Q1017
cycle: 17

Station Type Date Time Source
TDPD TAF 2022/06/27 18:19 UTC NOAA

TAF TDPD 271700Z 2718/2818 12012KT 9999 SCT018

Example: see airport list